Va Bene — ZCIP8 — position and weather

sailwx.info

Track history (hours):
 
Tides and Currents Weather Stations Pressure Air Temp Water Temp Dewpoint Dewpoint Depression Visibility Wind Speed Wind Dir Waves Ship Positions

Va Bene

Last reported at 2017-Aug-18 13:03 UTC. Time now 2017-Aug-18 14:38 UTC.
Position N 43°44' E 007°25'.

; draft 3.3 m.

Type: Pleasure craft. MMSI: 319854000.

Date/timePositionNaut miles runAvg speedWind from/ knotsBaromVisibWave heightAir tempDewpointWater temp
2017-Aug-18 13:03N 43°44' E 007°25'0 0.0
2017-Aug-18 12:48N 43°44' E 007°25'0 0.0
2017-Aug-18 12:30N 43°44' E 007°25'0 0.0
2017-Aug-18 11:57N 43°44' E 007°25'0 0.0
2017-Aug-18 11:30N 43°44' E 007°25'0 0.0
2017-Aug-18 10:51N 43°44' E 007°25'0 0.0
2017-Aug-18 10:30N 43°44' E 007°25'1 1.1
2017-Aug-18 10:00N 43°44' E 007°26'4 7.8
2017-Aug-18 09:30N 43°41' E 007°23'612.3
2017-Aug-18 09:00N 43°37' E 007°17'612.0
2017-Aug-18 08:30N 43°33' E 007°11'611.7
2017-Aug-18 08:00N 43°29' E 007°05'612.0
2017-Aug-18 07:30N 43°25' E 006°58'16 0.6
2017-Aug-17 04:05N 43°16' E 006°40'0 0.0
2017-Aug-16 12:29N 43°16' E 006°40'0 0.0
2017-Aug-16 11:20N 43°16' E 006°40'0 0.0
2017-Aug-16 10:56N 43°16' E 006°40'0 0.0
2017-Aug-16 10:20N 43°16' E 006°40'1 0.1
2017-Aug-15 22:38N 43°16' E 006°38'0 0.0
2017-Aug-15 22:14N 43°16' E 006°38'0 0.0
2017-Aug-15 21:44N 43°16' E 006°38'0 0.0
2017-Aug-15 21:11N 43°16' E 006°38'0 0.0
2017-Aug-15 20:26N 43°16' E 006°38'0 0.0
2017-Aug-15 19:44N 43°16' E 006°38'0 0.0
2017-Aug-15 19:26N 43°16' E 006°38'0 0.0
2017-Aug-15 18:53N 43°16' E 006°38'0 0.0
2017-Aug-15 15:14N 43°16' E 006°38'0 0.6
2017-Aug-15 15:00N 43°16' E 006°38'0 0.3
2017-Aug-15 14:30N 43°16' E 006°38'5 9.0
2017-Aug-15 13:54N 43°17' E 006°45'512.8
2017-Aug-15 13:30N 43°16' E 006°52'612.9
2017-Aug-15 13:01N 43°16' E 007°01'510.6
2017-Aug-15 12:30N 43°19' E 007°06'612.6
2017-Aug-15 12:00N 43°25' E 007°04'612.1
2017-Aug-15 11:30N 43°31' E 007°01'1 2.5
2017-Aug-15 10:59N 43°32' E 007°02'0 0.0
2017-Aug-15 10:26N 43°32' E 007°02'0 0.0
2017-Aug-15 09:59N 43°32' E 007°02'0 0.0
2017-Aug-15 09:29N 43°32' E 007°02'0 0.0
2017-Aug-15 08:59N 43°32' E 007°02'0 0.0
2017-Aug-15 08:29N 43°32' E 007°02'0 0.0
2017-Aug-15 07:59N 43°32' E 007°02'0 0.0
2017-Aug-15 07:23N 43°32' E 007°02'0 0.0
2017-Aug-15 06:59N 43°32' E 007°02'0 0.0
2017-Aug-15 06:29N 43°32' E 007°02'0 0.0
2017-Aug-15 05:59N 43°32' E 007°02'0 0.0
2017-Aug-15 05:26N 43°32' E 007°02'0 0.0
2017-Aug-15 04:59N 43°32' E 007°02'0 0.0
2017-Aug-15 04:29N 43°32' E 007°02'0 0.0
2017-Aug-15 03:56N 43°32' E 007°02'0 0.0
2017-Aug-15 03:26N 43°32' E 007°02'0 0.0
2017-Aug-15 02:59N 43°32' E 007°02'0 0.0
2017-Aug-15 02:29N 43°32' E 007°02'0 0.0
2017-Aug-15 01:59N 43°32' E 007°02'0 0.0
2017-Aug-15 01:29N 43°32' E 007°02'0 0.0
2017-Aug-15 00:59N 43°32' E 007°02'0 0.0
2017-Aug-15 00:29N 43°32' E 007°02'0 0.0
2017-Aug-14 23:59N 43°32' E 007°02'0 0.0
2017-Aug-14 23:29N 43°32' E 007°02'0 0.0
2017-Aug-14 22:59N 43°32' E 007°02'0 0.0
2017-Aug-14 22:29N 43°32' E 007°02'0 0.0
2017-Aug-14 21:59N 43°32' E 007°02'0 0.0
2017-Aug-14 21:29N 43°32' E 007°02'0 0.0
2017-Aug-14 20:59N 43°32' E 007°02'0 0.0
2017-Aug-14 20:29N 43°32' E 007°02'0 0.0
2017-Aug-14 19:50N 43°32' E 007°02'0 0.0
2017-Aug-14 19:26N 43°32' E 007°02'0 0.0
2017-Aug-14 18:59N 43°32' E 007°02'0 0.0
2017-Aug-14 18:29N 43°32' E 007°02'0 0.0
2017-Aug-14 17:53N 43°32' E 007°02'0 0.0
2017-Aug-14 17:29N 43°32' E 007°02'1 3.1
2017-Aug-14 17:00N 43°31' E 007°01'4 7.6
2017-Aug-14 16:30N 43°33' E 007°06'1 0.0
2017-Aug-13 17:01N 43°34' E 007°06'0 0.0
2017-Aug-13 16:58N 43°34' E 007°06'0 0.0
2017-Aug-13 16:19N 43°34' E 007°06'0 0.3
2017-Aug-13 15:44N 43°33' E 007°07'2 7.6
2017-Aug-13 15:31N 43°32' E 007°08'2 3.7
2017-Aug-13 14:51N 43°34' E 007°08'0 0.0
2017-Aug-13 14:29N 43°34' E 007°08'0 0.0
2017-Aug-13 14:00N 43°34' E 007°08'0 0.0
2017-Aug-13 13:30N 43°34' E 007°08'2 3.8
2017-Aug-13 13:00N 43°36' E 007°10'10 1.0
2017-Aug-13 03:44N 43°42' E 007°21'0 0.0
2017-Aug-12 19:14N 43°42' E 007°21'0 0.0
2017-Aug-12 12:56N 43°42' E 007°21'0 0.0
2017-Aug-12 12:20N 43°42' E 007°21'6 0.2
2017-Aug-11 10:15N 43°37' E 007°15'312.3
2017-Aug-11 10:00N 43°36' E 007°11'2 1.3
2017-Aug-11 08:17N 43°35' E 007°08'0 0.0
2017-Aug-11 07:59N 43°35' E 007°08'0 0.0
2017-Aug-11 07:20N 43°35' E 007°08'0 0.0
2017-Aug-11 06:47N 43°35' E 007°08'0 0.0
2017-Aug-11 06:20N 43°35' E 007°08'0 0.0
2017-Aug-11 05:50N 43°35' E 007°08'0 0.0
2017-Aug-11 05:20N 43°35' E 007°08'0 0.0
2017-Aug-11 04:53N 43°35' E 007°08'0 0.0
2017-Aug-11 04:23N 43°35' E 007°08'0 0.0
2017-Aug-11 02:50N 43°35' E 007°08'0 0.0
2017-Aug-11 01:08N 43°35' E 007°08'0 0.0
2017-Aug-11 00:56N 43°35' E 007°08'0 0.0
2017-Aug-10 20:44N 43°35' E 007°08'0 0.0
2017-Aug-10 20:29N 43°35' E 007°08'0 0.0
2017-Aug-10 19:59N 43°35' E 007°08'0 0.0
2017-Aug-10 19:29N 43°35' E 007°08'0 0.0
2017-Aug-10 18:48N 43°35' E 007°08'3 7.9
2017-Aug-10 18:25N 43°32' E 007°09'512.2
2017-Aug-10 18:01N 43°28' E 007°05'612.2
2017-Aug-10 17:30N 43°24' E 006°59'18 0.9
2017-Aug-09 20:39N 43°17' E 006°36'0 0.0
2017-Aug-09 20:30N 43°17' E 006°36'1 0.5
2017-Aug-09 19:08N 43°16' E 006°37'0 1.5
2017-Aug-09 18:55N 43°16' E 006°37'0 0.0
2017-Aug-09 18:25N 43°16' E 006°37'0 0.0
2017-Aug-09 17:43N 43°16' E 006°37'0 0.0
2017-Aug-08 14:19N 43°16' E 006°37'  
Track history (hours):
 
Tides and Currents Weather Stations Pressure Air Temp Water Temp Dewpoint Dewpoint Depression Visibility Wind Speed Wind Dir Waves Ship Positions

Va Bene

Last reported at 2017-Aug-18 13:03 UTC. Time now 2017-Aug-18 14:38 UTC.
Position N 43°44' E 007°25'.

; draft 3.3 m.

Type: Pleasure craft. MMSI: 319854000.

Date/timePositionNaut miles runAvg speedWind from/ knotsBaromVisibWave heightAir tempDewpointWater temp
2017-Aug-18 13:03N 43°44' E 007°25'0 0.0
2017-Aug-18 12:48N 43°44' E 007°25'0 0.0
2017-Aug-18 12:30N 43°44' E 007°25'0 0.0
2017-Aug-18 11:57N 43°44' E 007°25'0 0.0
2017-Aug-18 11:30N 43°44' E 007°25'0 0.0
2017-Aug-18 10:51N 43°44' E 007°25'0 0.0
2017-Aug-18 10:30N 43°44' E 007°25'1 1.1
2017-Aug-18 10:00N 43°44' E 007°26'4 7.8
2017-Aug-18 09:30N 43°41' E 007°23'612.3
2017-Aug-18 09:00N 43°37' E 007°17'612.0
2017-Aug-18 08:30N 43°33' E 007°11'611.7
2017-Aug-18 08:00N 43°29' E 007°05'612.0
2017-Aug-18 07:30N 43°25' E 006°58'16 0.6
2017-Aug-17 04:05N 43°16' E 006°40'0 0.0
2017-Aug-16 12:29N 43°16' E 006°40'0 0.0
2017-Aug-16 11:20N 43°16' E 006°40'0 0.0
2017-Aug-16 10:56N 43°16' E 006°40'0 0.0
2017-Aug-16 10:20N 43°16' E 006°40'1 0.1
2017-Aug-15 22:38N 43°16' E 006°38'0 0.0
2017-Aug-15 22:14N 43°16' E 006°38'0 0.0
2017-Aug-15 21:44N 43°16' E 006°38'0 0.0
2017-Aug-15 21:11N 43°16' E 006°38'0 0.0
2017-Aug-15 20:26N 43°16' E 006°38'0 0.0
2017-Aug-15 19:44N 43°16' E 006°38'0 0.0
2017-Aug-15 19:26N 43°16' E 006°38'0 0.0
2017-Aug-15 18:53N 43°16' E 006°38'0 0.0
2017-Aug-15 15:14N 43°16' E 006°38'0 0.6
2017-Aug-15 15:00N 43°16' E 006°38'0 0.3
2017-Aug-15 14:30N 43°16' E 006°38'5 9.0
2017-Aug-15 13:54N 43°17' E 006°45'512.8
2017-Aug-15 13:30N 43°16' E 006°52'612.9
2017-Aug-15 13:01N 43°16' E 007°01'510.6
2017-Aug-15 12:30N 43°19' E 007°06'612.6
2017-Aug-15 12:00N 43°25' E 007°04'612.1
2017-Aug-15 11:30N 43°31' E 007°01'1 2.5
2017-Aug-15 10:59N 43°32' E 007°02'0 0.0
2017-Aug-15 10:26N 43°32' E 007°02'0 0.0
2017-Aug-15 09:59N 43°32' E 007°02'0 0.0
2017-Aug-15 09:29N 43°32' E 007°02'0 0.0
2017-Aug-15 08:59N 43°32' E 007°02'0 0.0
2017-Aug-15 08:29N 43°32' E 007°02'0 0.0
2017-Aug-15 07:59N 43°32' E 007°02'0 0.0
2017-Aug-15 07:23N 43°32' E 007°02'0 0.0
2017-Aug-15 06:59N 43°32' E 007°02'0 0.0
2017-Aug-15 06:29N 43°32' E 007°02'0 0.0
2017-Aug-15 05:59N 43°32' E 007°02'0 0.0
2017-Aug-15 05:26N 43°32' E 007°02'0 0.0
2017-Aug-15 04:59N 43°32' E 007°02'0 0.0
2017-Aug-15 04:29N 43°32' E 007°02'0 0.0
2017-Aug-15 03:56N 43°32' E 007°02'0 0.0
2017-Aug-15 03:26N 43°32' E 007°02'0 0.0
2017-Aug-15 02:59N 43°32' E 007°02'0 0.0
2017-Aug-15 02:29N 43°32' E 007°02'0 0.0
2017-Aug-15 01:59N 43°32' E 007°02'0 0.0
2017-Aug-15 01:29N 43°32' E 007°02'0 0.0
2017-Aug-15 00:59N 43°32' E 007°02'0 0.0
2017-Aug-15 00:29N 43°32' E 007°02'0 0.0
2017-Aug-14 23:59N 43°32' E 007°02'0 0.0
2017-Aug-14 23:29N 43°32' E 007°02'0 0.0
2017-Aug-14 22:59N 43°32' E 007°02'0 0.0
2017-Aug-14 22:29N 43°32' E 007°02'0 0.0
2017-Aug-14 21:59N 43°32' E 007°02'0 0.0
2017-Aug-14 21:29N 43°32' E 007°02'0 0.0
2017-Aug-14 20:59N 43°32' E 007°02'0 0.0
2017-Aug-14 20:29N 43°32' E 007°02'0 0.0
2017-Aug-14 19:50N 43°32' E 007°02'0 0.0
2017-Aug-14 19:26N 43°32' E 007°02'0 0.0
2017-Aug-14 18:59N 43°32' E 007°02'0 0.0
2017-Aug-14 18:29N 43°32' E 007°02'0 0.0
2017-Aug-14 17:53N 43°32' E 007°02'0 0.0
2017-Aug-14 17:29N 43°32' E 007°02'1 3.1
2017-Aug-14 17:00N 43°31' E 007°01'4 7.6
2017-Aug-14 16:30N 43°33' E 007°06'1 0.0
2017-Aug-13 17:01N 43°34' E 007°06'0 0.0
2017-Aug-13 16:58N 43°34' E 007°06'0 0.0
2017-Aug-13 16:19N 43°34' E 007°06'0 0.3
2017-Aug-13 15:44N 43°33' E 007°07'2 7.6
2017-Aug-13 15:31N 43°32' E 007°08'2 3.7
2017-Aug-13 14:51N 43°34' E 007°08'0 0.0
2017-Aug-13 14:29N 43°34' E 007°08'0 0.0
2017-Aug-13 14:00N 43°34' E 007°08'0 0.0
2017-Aug-13 13:30N 43°34' E 007°08'2 3.8
2017-Aug-13 13:00N 43°36' E 007°10'10 1.0
2017-Aug-13 03:44N 43°42' E 007°21'0 0.0
2017-Aug-12 19:14N 43°42' E 007°21'0 0.0
2017-Aug-12 12:56N 43°42' E 007°21'0 0.0
2017-Aug-12 12:20N 43°42' E 007°21'6 0.2
2017-Aug-11 10:15N 43°37' E 007°15'312.3
2017-Aug-11 10:00N 43°36' E 007°11'2 1.3
2017-Aug-11 08:17N 43°35' E 007°08'0 0.0
2017-Aug-11 07:59N 43°35' E 007°08'0 0.0
2017-Aug-11 07:20N 43°35' E 007°08'0 0.0
2017-Aug-11 06:47N 43°35' E 007°08'0 0.0
2017-Aug-11 06:20N 43°35' E 007°08'0 0.0
2017-Aug-11 05:50N 43°35' E 007°08'0 0.0
2017-Aug-11 05:20N 43°35' E 007°08'0 0.0
2017-Aug-11 04:53N 43°35' E 007°08'0 0.0
2017-Aug-11 04:23N 43°35' E 007°08'0 0.0
2017-Aug-11 02:50N 43°35' E 007°08'0 0.0
2017-Aug-11 01:08N 43°35' E 007°08'0 0.0
2017-Aug-11 00:56N 43°35' E 007°08'0 0.0
2017-Aug-10 20:44N 43°35' E 007°08'0 0.0
2017-Aug-10 20:29N 43°35' E 007°08'0 0.0
2017-Aug-10 19:59N 43°35' E 007°08'0 0.0
2017-Aug-10 19:29N 43°35' E 007°08'0 0.0
2017-Aug-10 18:48N 43°35' E 007°08'3 7.9
2017-Aug-10 18:25N 43°32' E 007°09'512.2
2017-Aug-10 18:01N 43°28' E 007°05'612.2
2017-Aug-10 17:30N 43°24' E 006°59'18 0.9
2017-Aug-09 20:39N 43°17' E 006°36'0 0.0
2017-Aug-09 20:30N 43°17' E 006°36'1 0.5
2017-Aug-09 19:08N 43°16' E 006°37'0 1.5
2017-Aug-09 18:55N 43°16' E 006°37'0 0.0
2017-Aug-09 18:25N 43°16' E 006°37'0 0.0
2017-Aug-09 17:43N 43°16' E 006°37'0 0.0
2017-Aug-08 14:19N 43°16' E 006°37'  

Dump ship's entire track history